createdAt,value
2019-05-21T00:00:43.486Z,26.90
2019-05-21T00:01:43.484Z,27.70
2019-05-21T00:02:43.473Z,26.50
2019-05-21T00:03:43.467Z,26.60
2019-05-21T00:04:43.468Z,28.50
2019-05-21T00:05:43.463Z,28.30
2019-05-21T00:06:43.460Z,28.60
2019-05-21T00:07:43.454Z,30.40
2019-05-21T00:08:43.470Z,31.40
2019-05-21T00:09:43.441Z,31.60
2019-05-21T00:10:43.433Z,32.90
2019-05-21T00:11:43.424Z,32.70
2019-05-21T00:12:43.425Z,32.80
2019-05-21T00:13:43.423Z,32.10
2019-05-21T00:14:43.408Z,31.20
2019-05-21T00:15:43.404Z,31.30
2019-05-21T00:16:43.403Z,32.70
2019-05-21T00:17:43.399Z,31.30
2019-05-21T00:18:43.395Z,31.20
2019-05-21T00:19:43.388Z,31.70
2019-05-21T00:20:43.385Z,32.10
2019-05-21T00:21:43.374Z,30.70
2019-05-21T00:22:43.370Z,31.10
2019-05-21T00:23:43.363Z,32.80
2019-05-21T00:24:43.418Z,34.00
2019-05-21T00:25:43.356Z,33.00
2019-05-21T00:26:43.347Z,33.60
2019-05-21T00:27:43.345Z,33.40
2019-05-21T00:28:43.333Z,34.10
2019-05-21T00:29:43.329Z,32.80
2019-05-21T00:30:43.328Z,34.90
2019-05-21T00:31:43.321Z,33.10
2019-05-21T00:32:43.312Z,31.70
2019-05-21T00:33:43.310Z,30.00
2019-05-21T00:34:44.369Z,29.70
2019-05-21T00:35:43.297Z,28.60
2019-05-21T00:36:43.296Z,29.50
2019-05-21T00:37:43.291Z,29.90
2019-05-21T00:38:43.288Z,29.30
2019-05-21T00:39:43.278Z,29.40
2019-05-21T00:40:43.271Z,27.70
2019-05-21T00:41:43.271Z,29.30
2019-05-21T00:42:43.257Z,28.60
2019-05-21T00:43:43.253Z,28.90
2019-05-21T00:44:43.249Z,29.20
2019-05-21T00:45:43.290Z,30.70
2019-05-21T00:46:43.234Z,31.00
2019-05-21T00:47:43.229Z,31.30
2019-05-21T00:48:43.236Z,32.20
2019-05-21T00:49:43.224Z,34.10
2019-05-21T00:50:43.219Z,34.00
2019-05-21T00:51:43.213Z,35.00
2019-05-21T00:52:43.205Z,34.20
2019-05-21T00:53:43.199Z,35.50
2019-05-21T00:54:43.199Z,35.30
2019-05-21T00:55:43.186Z,33.20
2019-05-21T00:56:43.221Z,34.10
2019-05-21T00:57:43.179Z,32.90
2019-05-21T00:58:43.172Z,31.40
2019-05-21T00:59:43.169Z,32.80
2019-05-21T01:00:43.162Z,31.60
2019-05-21T01:01:43.156Z,31.30
2019-05-21T01:02:43.150Z,32.60
2019-05-21T01:03:43.541Z,30.70
2019-05-21T01:04:43.134Z,31.00
2019-05-21T01:05:43.129Z,31.00
2019-05-21T01:06:43.125Z,31.10
2019-05-21T01:07:43.127Z,27.90
2019-05-21T01:08:43.119Z,28.70
2019-05-21T01:09:43.138Z,28.20
2019-05-21T01:10:43.105Z,29.30
2019-05-21T01:11:43.101Z,28.80
2019-05-21T01:12:43.087Z,30.60
2019-05-21T01:13:43.085Z,31.40
2019-05-21T01:14:43.083Z,31.90
2019-05-21T01:15:43.073Z,31.30
2019-05-21T01:16:43.075Z,30.40
2019-05-21T01:17:43.066Z,30.60
2019-05-21T01:18:43.058Z,30.50
2019-05-21T01:19:43.052Z,29.50
2019-05-21T01:20:43.051Z,29.50
2019-05-21T01:21:43.046Z,29.90
2019-05-21T01:22:43.036Z,29.60
2019-05-21T01:23:43.028Z,28.60
2019-05-21T01:24:43.019Z,29.00
2019-05-21T01:25:43.013Z,28.00
2019-05-21T01:26:43.009Z,28.00
2019-05-21T01:27:43.001Z,28.30
2019-05-21T01:28:43.003Z,27.80
2019-05-21T01:29:42.996Z,28.10
2019-05-21T01:30:42.994Z,27.60
2019-05-21T01:31:42.986Z,27.90
2019-05-21T01:32:42.977Z,27.30
2019-05-21T01:33:42.971Z,27.90
2019-05-21T01:34:42.973Z,28.20
2019-05-21T01:35:42.962Z,28.50
2019-05-21T01:36:42.952Z,28.70
2019-05-21T01:37:42.946Z,29.00
2019-05-21T01:38:42.939Z,29.40
2019-05-21T01:39:42.936Z,28.30
2019-05-21T01:40:42.931Z,27.20
2019-05-21T01:41:42.925Z,27.00
2019-05-21T01:42:42.920Z,26.60
2019-05-21T01:43:42.912Z,28.50
2019-05-21T01:44:42.904Z,26.70
2019-05-21T01:45:42.898Z,27.00
2019-05-21T01:46:42.895Z,25.90
2019-05-21T01:47:42.888Z,26.40
2019-05-21T01:48:42.897Z,27.30
2019-05-21T01:49:42.881Z,27.10
2019-05-21T01:50:42.872Z,25.90
2019-05-21T01:51:42.864Z,27.00
2019-05-21T01:52:42.865Z,25.50
2019-05-21T01:53:42.860Z,25.90
2019-05-21T01:54:42.851Z,24.70
2019-05-21T01:55:42.849Z,24.50
2019-05-21T01:56:42.831Z,25.80
2019-05-21T01:57:42.828Z,25.10
2019-05-21T01:58:42.821Z,23.60
2019-05-21T01:59:42.816Z,22.20
2019-05-21T02:00:42.814Z,23.50
2019-05-21T02:01:42.808Z,25.50
2019-05-21T02:02:42.804Z,24.90
2019-05-21T02:03:42.799Z,23.70
2019-05-21T02:04:42.789Z,25.00
2019-05-21T02:05:42.783Z,23.80
2019-05-21T02:06:42.780Z,24.80
2019-05-21T02:07:42.774Z,23.60
2019-05-21T02:08:42.841Z,22.90
2019-05-21T02:09:42.763Z,22.80
2019-05-21T02:10:42.752Z,23.30
2019-05-21T02:11:42.745Z,23.90
2019-05-21T02:12:42.743Z,24.30
2019-05-21T02:13:42.737Z,23.20
2019-05-21T02:14:42.732Z,23.50
2019-05-21T02:15:42.727Z,23.30
2019-05-21T02:16:42.717Z,24.20
2019-05-21T02:17:42.711Z,26.30
2019-05-21T02:18:42.704Z,26.10
2019-05-21T02:19:42.697Z,27.00
2019-05-21T02:20:42.696Z,26.90
2019-05-21T02:21:42.688Z,26.50
2019-05-21T02:22:42.679Z,26.10
2019-05-21T02:23:42.673Z,25.90
2019-05-21T02:24:42.672Z,26.10
2019-05-21T02:25:42.666Z,26.90
2019-05-21T02:26:42.663Z,27.40
2019-05-21T02:27:42.654Z,27.20
2019-05-21T02:28:42.650Z,26.80
2019-05-21T02:29:42.640Z,27.20
2019-05-21T02:30:42.636Z,26.20
2019-05-21T02:31:42.631Z,26.60
2019-05-21T02:32:42.629Z,25.30
2019-05-21T02:33:42.621Z,26.50
2019-05-21T02:34:42.616Z,26.80
2019-05-21T02:35:53.477Z,27.20
2019-05-21T02:36:42.597Z,27.00
2019-05-21T02:37:42.591Z,25.60
2019-05-21T02:38:42.592Z,25.50
2019-05-21T02:39:42.585Z,25.60
2019-05-21T02:40:42.575Z,26.00
2019-05-21T02:41:42.571Z,28.40
2019-05-21T02:42:42.565Z,27.00
2019-05-21T02:43:42.566Z,26.70
2019-05-21T02:44:42.557Z,26.30
2019-05-21T02:45:42.555Z,26.90
2019-05-21T02:46:42.548Z,26.00
2019-05-21T02:47:42.555Z,27.30
2019-05-21T02:48:42.530Z,27.10
2019-05-21T02:49:42.538Z,28.00
2019-05-21T02:50:42.518Z,27.60
2019-05-21T02:51:42.510Z,26.20
2019-05-21T02:52:42.510Z,27.10
2019-05-21T02:53:42.504Z,26.00
2019-05-21T02:54:42.539Z,27.40
2019-05-21T02:55:42.484Z,26.00
2019-05-21T02:56:42.483Z,25.30
2019-05-21T02:57:42.485Z,26.50
2019-05-21T02:58:42.488Z,27.10
2019-05-21T02:59:42.468Z,26.50
2019-05-21T03:00:42.465Z,26.90
2019-05-21T03:01:42.457Z,26.90
2019-05-21T03:02:42.447Z,28.60
2019-05-21T03:03:42.441Z,25.80
2019-05-21T03:04:42.439Z,25.60
2019-05-21T03:05:42.433Z,24.40
2019-05-21T03:06:42.427Z,27.40
2019-05-21T03:07:42.419Z,27.50
2019-05-21T03:08:42.409Z,28.10
2019-05-21T03:09:42.402Z,26.00
2019-05-21T03:10:42.401Z,27.90
2019-05-21T03:11:42.395Z,27.90
2019-05-21T03:12:42.384Z,28.60
2019-05-21T03:13:42.378Z,26.50
2019-05-21T03:14:42.387Z,26.80
2019-05-21T03:15:42.368Z,25.30
2019-05-21T03:16:42.383Z,25.00
2019-05-21T03:17:42.365Z,25.60
2019-05-21T03:18:42.353Z,26.40
2019-05-21T03:19:42.347Z,27.10
2019-05-21T03:20:42.337Z,28.80
2019-05-21T03:21:42.331Z,29.70
2019-05-21T03:22:42.331Z,30.60
2019-05-21T03:23:42.321Z,30.50
2019-05-21T03:24:42.319Z,30.20
2019-05-21T03:25:42.315Z,30.50
2019-05-21T03:26:42.304Z,30.10
2019-05-21T03:27:42.301Z,29.30
2019-05-21T03:28:42.294Z,29.70
2019-05-21T03:29:42.292Z,31.60
2019-05-21T03:30:42.296Z,28.60
2019-05-21T03:31:42.276Z,28.40
2019-05-21T03:32:42.290Z,28.70
2019-05-21T03:33:42.260Z,29.20
2019-05-21T03:34:42.261Z,28.70
2019-05-21T03:35:42.247Z,28.80
2019-05-21T03:36:42.246Z,28.40
2019-05-21T03:37:42.238Z,28.60
2019-05-21T03:38:42.237Z,30.70
2019-05-21T03:39:42.292Z,30.40
2019-05-21T03:40:42.219Z,31.60
2019-05-21T03:41:42.217Z,32.70
2019-05-21T03:42:42.214Z,32.30
2019-05-21T03:43:42.211Z,31.40
2019-05-21T03:44:58.280Z,32.00
2019-05-21T03:45:42.191Z,32.40
2019-05-21T03:46:42.182Z,31.00
2019-05-21T03:47:42.176Z,32.70
2019-05-21T03:48:42.193Z,32.60
2019-05-21T03:49:42.169Z,30.60
2019-05-21T03:50:42.165Z,30.80
2019-05-21T03:51:42.158Z,29.90
2019-05-21T03:52:42.152Z,31.80
2019-05-21T03:53:42.139Z,31.60
2019-05-21T03:54:42.142Z,33.90
2019-05-21T03:55:42.134Z,35.20
2019-05-21T03:56:42.127Z,38.80
2019-05-21T03:57:42.122Z,37.80
2019-05-21T03:58:42.117Z,39.30
2019-05-21T03:59:42.104Z,41.10
2019-05-21T04:00:42.106Z,40.60
2019-05-21T04:01:42.098Z,41.50
2019-05-21T04:02:42.089Z,46.90
2019-05-21T04:03:42.087Z,47.50
2019-05-21T04:04:42.074Z,50.70
2019-05-21T04:05:42.067Z,49.10
2019-05-21T04:06:51.665Z,52.40
2019-05-21T04:07:42.057Z,49.70
2019-05-21T04:08:42.064Z,49.60
2019-05-21T04:09:42.058Z,46.70
2019-05-21T04:10:42.045Z,48.00
2019-05-21T04:11:42.036Z,52.20
2019-05-21T04:12:42.037Z,50.90
2019-05-21T04:13:42.022Z,52.90
2019-05-21T04:14:42.018Z,52.20
2019-05-21T04:15:42.026Z,52.50
2019-05-21T04:16:42.004Z,57.20
2019-05-21T04:17:42.007Z,57.50
2019-05-21T04:18:41.989Z,55.80
2019-05-21T04:19:41.986Z,52.80
2019-05-21T04:20:42.001Z,59.70
2019-05-21T04:21:41.975Z,58.10
2019-05-21T04:22:41.973Z,58.80
2019-05-21T04:23:41.966Z,57.50
2019-05-21T04:24:41.958Z,58.70
2019-05-21T04:25:41.952Z,59.30
2019-05-21T04:26:41.943Z,59.50
2019-05-21T04:27:41.936Z,58.60
2019-05-21T04:28:41.954Z,62.30
2019-05-21T04:29:41.932Z,62.30
2019-05-21T04:30:41.920Z,61.10
2019-05-21T04:31:41.910Z,62.20
2019-05-21T04:32:41.919Z,61.40
2019-05-21T04:33:41.905Z,59.90
2019-05-21T04:34:41.900Z,59.50
2019-05-21T04:35:41.894Z,60.10
2019-05-21T04:36:41.885Z,58.70
2019-05-21T04:37:41.880Z,58.60
2019-05-21T04:38:41.878Z,59.30
2019-05-21T04:39:41.875Z,57.40
2019-05-21T04:40:41.866Z,59.10
2019-05-21T04:41:41.861Z,61.00
2019-05-21T04:42:41.854Z,58.10
2019-05-21T04:43:41.846Z,60.50
2019-05-21T04:44:41.839Z,59.00
2019-05-21T04:45:41.830Z,59.80
2019-05-21T04:46:41.828Z,56.30
2019-05-21T04:47:41.824Z,60.70
2019-05-21T04:48:41.813Z,57.90
2019-05-21T04:49:41.807Z,56.10
2019-05-21T04:50:41.807Z,56.90
2019-05-21T04:51:41.797Z,57.20
2019-05-21T04:52:41.796Z,56.80
2019-05-21T04:53:41.789Z,58.30
2019-05-21T04:54:41.785Z,57.60
2019-05-21T04:55:41.786Z,59.50
2019-05-21T04:56:41.767Z,57.80
2019-05-21T04:57:41.763Z,57.80
2019-05-21T04:58:41.753Z,55.90
2019-05-21T04:59:41.747Z,56.70
2019-05-21T05:00:41.759Z,54.10
2019-05-21T05:01:41.741Z,54.50
2019-05-21T05:02:41.732Z,54.90
2019-05-21T05:03:41.725Z,54.50
2019-05-21T05:04:41.724Z,52.50
2019-05-21T05:05:41.719Z,52.80
2019-05-21T05:06:41.714Z,57.10
2019-05-21T05:07:41.719Z,51.00
2019-05-21T05:08:41.698Z,52.40
2019-05-21T05:09:41.693Z,53.60
2019-05-21T05:10:41.689Z,52.80
2019-05-21T05:11:41.682Z,54.80
2019-05-21T05:12:41.681Z,53.30
2019-05-21T05:13:41.674Z,53.90
2019-05-21T05:14:41.666Z,52.00
2019-05-21T05:15:41.661Z,52.80
2019-05-21T05:16:41.648Z,52.00
2019-05-21T05:17:41.651Z,51.50
2019-05-21T05:18:41.645Z,51.90
2019-05-21T05:19:41.638Z,51.20
2019-05-21T05:20:41.628Z,50.70
2019-05-21T05:21:41.621Z,48.50
2019-05-21T05:22:41.639Z,49.90
2019-05-21T05:23:41.613Z,49.50
2019-05-21T05:24:41.610Z,49.10
2019-05-21T05:25:41.606Z,50.60
2019-05-21T05:26:41.602Z,49.30
2019-05-21T05:27:41.590Z,50.00
2019-05-21T05:28:41.581Z,51.00
2019-05-21T05:29:41.578Z,50.10
2019-05-21T05:30:41.575Z,49.80
2019-05-21T05:31:41.570Z,50.00
2019-05-21T05:32:41.564Z,50.80
2019-05-21T05:33:41.559Z,52.50
2019-05-21T05:34:41.549Z,53.40
2019-05-21T05:35:41.543Z,50.10
2019-05-21T05:36:41.542Z,48.40
2019-05-21T05:37:45.160Z,49.40
2019-05-21T05:38:41.531Z,48.50
2019-05-21T05:39:41.520Z,48.10
2019-05-21T05:40:41.510Z,48.60
2019-05-21T05:41:41.507Z,47.60
2019-05-21T05:42:41.507Z,47.80
2019-05-21T05:43:41.496Z,47.50
2019-05-21T05:44:41.494Z,47.00
2019-05-21T05:45:41.489Z,48.00
2019-05-21T05:46:41.483Z,47.40
2019-05-21T05:47:41.477Z,48.00
2019-05-21T05:48:41.469Z,48.20
2019-05-21T05:49:41.462Z,46.50
2019-05-21T05:50:41.464Z,45.50
2019-05-21T05:51:41.459Z,48.70
2019-05-21T05:52:41.446Z,49.80
2019-05-21T05:53:41.439Z,48.30
2019-05-21T05:54:41.430Z,48.90
2019-05-21T05:55:41.425Z,49.70
2019-05-21T05:56:41.447Z,47.40
2019-05-21T05:57:41.449Z,46.90
2019-05-21T05:58:41.412Z,48.90
2019-05-21T05:59:41.406Z,48.30
2019-05-21T06:00:41.394Z,49.90
2019-05-21T06:01:41.392Z,48.10
2019-05-21T06:02:41.387Z,48.40
2019-05-21T06:03:41.380Z,49.20
2019-05-21T06:04:41.379Z,50.00
2019-05-21T06:05:41.374Z,49.80
2019-05-21T06:06:41.424Z,49.40
2019-05-21T06:07:41.360Z,47.20
2019-05-21T06:08:41.355Z,48.10
2019-05-21T06:09:41.352Z,45.30
2019-05-21T06:10:41.344Z,45.60
2019-05-21T06:11:41.338Z,44.30
2019-05-21T06:12:41.369Z,43.10
2019-05-21T06:13:41.322Z,44.80
2019-05-21T06:14:41.320Z,41.60
2019-05-21T06:15:41.311Z,39.50
2019-05-21T06:16:41.308Z,40.50
2019-05-21T06:17:41.307Z,40.10
2019-05-21T06:18:41.300Z,39.40
2019-05-21T06:19:41.293Z,39.60
2019-05-21T06:20:41.289Z,39.30
2019-05-21T06:21:41.280Z,37.10
2019-05-21T06:22:41.278Z,38.60
2019-05-21T06:23:41.269Z,37.50
2019-05-21T06:24:41.262Z,39.10
2019-05-21T06:25:41.255Z,36.70
2019-05-21T06:26:41.246Z,37.90
2019-05-21T06:27:41.241Z,35.30
2019-05-21T06:28:41.240Z,34.90
2019-05-21T06:29:41.236Z,34.80
2019-05-21T06:30:41.229Z,35.10
2019-05-21T06:31:41.230Z,34.00
2019-05-21T06:32:41.216Z,33.30
2019-05-21T06:33:41.208Z,31.90
2019-05-21T06:34:41.209Z,30.60
2019-05-21T06:35:41.201Z,30.40
2019-05-21T06:36:41.196Z,32.30
2019-05-21T06:37:41.194Z,33.60
2019-05-21T06:38:41.184Z,33.90
2019-05-21T06:39:41.177Z,30.90
2019-05-21T06:40:41.177Z,31.50
2019-05-21T06:41:41.169Z,32.50
2019-05-21T06:42:41.165Z,32.00
2019-05-21T06:43:41.159Z,31.70
2019-05-21T06:44:41.147Z,31.90
2019-05-21T06:45:41.143Z,35.50
2019-05-21T06:46:41.137Z,34.80
2019-05-21T06:47:41.131Z,36.30
2019-05-21T06:48:41.146Z,37.20
2019-05-21T06:49:41.127Z,37.00
2019-05-21T06:50:41.122Z,37.20
2019-05-21T06:51:41.116Z,37.70
2019-05-21T06:52:41.147Z,36.90
2019-05-21T06:53:41.102Z,37.20
2019-05-21T06:54:41.099Z,32.40
2019-05-21T06:55:41.097Z,30.60
2019-05-21T06:56:41.086Z,29.80
2019-05-21T06:57:41.092Z,26.70
2019-05-21T06:58:41.073Z,26.90
2019-05-21T06:59:41.065Z,28.90
2019-05-21T07:00:41.069Z,27.60
2019-05-21T07:01:41.097Z,29.90
2019-05-21T07:02:41.054Z,30.30
2019-05-21T07:03:41.052Z,31.40
2019-05-21T07:04:41.039Z,33.10
2019-05-21T07:05:57.628Z,36.50
2019-05-21T07:06:42.935Z,35.20
2019-05-21T07:07:41.028Z,35.60
2019-05-21T07:08:41.027Z,36.10
2019-05-21T07:09:41.024Z,37.20
2019-05-21T07:10:41.012Z,37.60
2019-05-21T07:11:41.005Z,38.30
2019-05-21T07:12:41.003Z,38.00
2019-05-21T07:13:40.996Z,36.50
2019-05-21T07:14:40.990Z,35.10
2019-05-21T07:15:40.984Z,35.50
2019-05-21T07:16:40.977Z,36.30
2019-05-21T07:17:40.970Z,33.20
2019-05-21T07:18:41.623Z,35.20
2019-05-21T07:19:40.957Z,33.90
2019-05-21T07:20:40.960Z,33.90
2019-05-21T07:21:40.954Z,32.90
2019-05-21T07:22:40.993Z,33.40
2019-05-21T07:23:40.944Z,32.70
2019-05-21T07:24:40.934Z,31.60
2019-05-21T07:25:40.930Z,31.50
2019-05-21T07:26:40.928Z,31.80
2019-05-21T07:27:40.922Z,31.40
2019-05-21T07:28:40.916Z,33.50
2019-05-21T07:29:40.907Z,31.70
2019-05-21T07:30:40.900Z,32.80
2019-05-21T07:31:40.894Z,32.50
2019-05-21T07:32:40.922Z,33.10
2019-05-21T07:33:40.889Z,33.20
2019-05-21T07:34:40.889Z,32.70
2019-05-21T07:35:40.879Z,33.50
2019-05-21T07:36:40.873Z,33.70
2019-05-21T07:37:40.866Z,33.10
2019-05-21T07:38:52.883Z,32.60
2019-05-21T07:39:40.851Z,34.90
2019-05-21T07:40:40.850Z,34.90
2019-05-21T07:41:40.844Z,34.50
2019-05-21T07:42:40.837Z,35.20
2019-05-21T07:43:40.833Z,35.90
2019-05-21T07:44:40.830Z,34.90
2019-05-21T07:45:40.825Z,34.60
2019-05-21T07:46:40.824Z,36.10
2019-05-21T07:47:40.817Z,34.60
2019-05-21T07:48:40.808Z,33.80
2019-05-21T07:49:40.803Z,34.20
2019-05-21T07:50:40.797Z,34.80
2019-05-21T07:51:40.790Z,35.30
2019-05-21T07:52:40.790Z,34.40
2019-05-21T07:53:40.785Z,34.80
2019-05-21T07:54:40.776Z,36.10
2019-05-21T07:55:40.771Z,35.90
2019-05-21T07:56:40.765Z,35.50
2019-05-21T07:57:40.759Z,36.80
2019-05-21T07:58:40.754Z,35.60
2019-05-21T07:59:40.750Z,37.40
2019-05-21T08:00:40.739Z,37.70
2019-05-21T08:01:40.736Z,38.50
2019-05-21T08:02:40.831Z,37.20
2019-05-21T08:03:40.727Z,37.10
2019-05-21T08:04:40.728Z,36.50
2019-05-21T08:05:40.721Z,36.10
2019-05-21T08:06:40.718Z,35.90
2019-05-21T08:07:40.712Z,35.40
2019-05-21T08:08:40.702Z,36.30
2019-05-21T08:09:40.699Z,35.30
2019-05-21T08:10:40.726Z,35.60
2019-05-21T08:11:40.682Z,36.50
2019-05-21T08:12:40.685Z,35.70
2019-05-21T08:13:40.680Z,35.80
2019-05-21T08:14:40.668Z,34.80
2019-05-21T08:15:40.662Z,34.20
2019-05-21T08:16:40.660Z,33.20
2019-05-21T08:17:40.658Z,34.40
2019-05-21T08:18:40.655Z,34.30
2019-05-21T08:19:40.652Z,34.40
2019-05-21T08:20:40.642Z,34.50
2019-05-21T08:21:40.635Z,33.90
2019-05-21T08:22:40.638Z,35.40
2019-05-21T08:23:40.632Z,35.50
2019-05-21T08:24:40.621Z,35.30
2019-05-21T08:25:40.683Z,33.60
2019-05-21T08:26:40.610Z,31.80
2019-05-21T08:27:40.645Z,33.00
2019-05-21T08:28:40.598Z,33.80
2019-05-21T08:29:40.589Z,33.60
2019-05-21T08:30:40.589Z,34.40
2019-05-21T08:31:40.583Z,34.00
2019-05-21T08:32:40.577Z,31.90
2019-05-21T08:33:40.571Z,32.30
2019-05-21T08:34:40.565Z,35.00
2019-05-21T08:35:40.570Z,33.50
2019-05-21T08:36:40.559Z,34.20
2019-05-21T08:37:40.553Z,35.90
2019-05-21T08:38:40.550Z,35.00
2019-05-21T08:39:40.541Z,35.20
2019-05-21T08:40:40.531Z,34.00
2019-05-21T08:41:40.526Z,34.80
2019-05-21T08:42:40.529Z,35.40
2019-05-21T08:43:40.516Z,34.90
2019-05-21T08:44:40.525Z,35.70
2019-05-21T08:45:40.511Z,36.90
2019-05-21T08:46:40.502Z,37.40
2019-05-21T08:47:40.495Z,37.10
2019-05-21T08:48:40.493Z,36.90
2019-05-21T08:49:44.073Z,34.00
2019-05-21T08:50:40.486Z,35.60
2019-05-21T08:51:40.474Z,36.00
2019-05-21T08:52:40.465Z,34.90
2019-05-21T08:53:40.462Z,37.00
2019-05-21T08:54:40.456Z,35.20
2019-05-21T08:55:40.448Z,35.60
2019-05-21T08:56:40.449Z,35.60
2019-05-21T08:57:40.444Z,36.30
2019-05-21T08:58:40.440Z,36.60
2019-05-21T08:59:40.435Z,36.20
2019-05-21T09:00:40.424Z,36.50
2019-05-21T09:01:40.421Z,36.10
2019-05-21T09:02:40.418Z,35.80
2019-05-21T09:03:40.412Z,35.20
2019-05-21T09:04:46.300Z,35.80
2019-05-21T09:05:40.396Z,36.50
2019-05-21T09:06:40.390Z,35.60
2019-05-21T09:07:40.384Z,34.30
2019-05-21T09:08:40.383Z,35.50
2019-05-21T09:09:50.200Z,34.30
2019-05-21T09:10:40.372Z,37.90
2019-05-21T09:11:40.370Z,37.00
2019-05-21T09:12:40.356Z,33.90
2019-05-21T09:13:40.393Z,34.40
2019-05-21T09:14:40.349Z,30.80
2019-05-21T09:15:40.368Z,30.80
2019-05-21T09:16:40.346Z,29.20
2019-05-21T09:17:40.338Z,28.60
2019-05-21T09:18:40.329Z,30.40
2019-05-21T09:19:40.328Z,29.90
2019-05-21T09:20:40.325Z,31.00
2019-05-21T09:21:40.315Z,29.60
2019-05-21T09:22:40.309Z,31.40
2019-05-21T09:23:40.304Z,29.00
2019-05-21T09:24:40.294Z,29.60
2019-05-21T09:25:40.290Z,29.90
2019-05-21T09:26:40.284Z,29.90
2019-05-21T09:27:40.276Z,29.60
2019-05-21T09:28:40.276Z,28.70
2019-05-21T09:29:40.275Z,27.30
2019-05-21T09:30:40.274Z,25.90
2019-05-21T09:31:40.262Z,27.80
2019-05-21T09:32:40.288Z,25.90
2019-05-21T09:33:40.249Z,24.60
2019-05-21T09:34:48.874Z,25.80
2019-05-21T09:35:40.276Z,25.00
2019-05-21T09:36:40.234Z,27.00
2019-05-21T09:37:40.232Z,25.70
2019-05-21T09:38:40.222Z,25.20
2019-05-21T09:39:40.214Z,25.00
2019-05-21T09:40:40.218Z,25.90
2019-05-21T09:41:40.210Z,25.10
2019-05-21T09:42:40.205Z,25.40
2019-05-21T09:43:40.199Z,26.50
2019-05-21T09:44:40.190Z,29.00
2019-05-21T09:45:40.187Z,29.00
2019-05-21T09:46:40.178Z,27.10
2019-05-21T09:47:40.195Z,25.80
2019-05-21T09:48:40.173Z,27.00
2019-05-21T09:49:40.165Z,28.20
2019-05-21T09:50:40.173Z,26.70
2019-05-21T09:51:40.155Z,27.10
2019-05-21T09:52:40.150Z,28.00
2019-05-21T09:53:40.144Z,26.50
2019-05-21T09:54:40.142Z,25.90
2019-05-21T09:55:40.134Z,25.20
2019-05-21T09:56:40.127Z,25.00
2019-05-21T09:57:40.123Z,24.60
2019-05-21T09:58:40.119Z,24.50
2019-05-21T09:59:40.111Z,22.90
2019-05-21T10:00:40.111Z,24.90
2019-05-21T10:01:40.106Z,24.40
2019-05-21T10:02:40.104Z,23.50
2019-05-21T10:03:40.094Z,21.60
2019-05-21T10:04:40.086Z,21.00
2019-05-21T10:05:40.097Z,20.50
2019-05-21T10:06:40.085Z,22.40
2019-05-21T10:07:40.777Z,20.90
2019-05-21T10:08:40.064Z,22.20
2019-05-21T10:09:40.061Z,21.10
2019-05-21T10:10:40.056Z,22.70
2019-05-21T10:11:40.049Z,21.50
2019-05-21T10:12:40.049Z,21.00
2019-05-21T10:13:40.072Z,21.10
2019-05-21T10:14:40.045Z,20.60
2019-05-21T10:15:40.038Z,20.10
2019-05-21T10:16:40.028Z,22.30
2019-05-21T10:17:40.019Z,21.20
2019-05-21T10:18:40.011Z,22.40
2019-05-21T10:19:40.004Z,21.90
2019-05-21T10:20:40.008Z,22.30
2019-05-21T10:21:40.006Z,22.60
2019-05-21T10:22:39.993Z,21.20
2019-05-21T10:23:39.998Z,21.00
2019-05-21T10:24:39.985Z,22.20
2019-05-21T10:25:40.021Z,22.00
2019-05-21T10:26:39.978Z,22.20
2019-05-21T10:27:39.982Z,22.80
2019-05-21T10:28:39.990Z,22.10
2019-05-21T10:29:39.959Z,22.30
2019-05-21T10:30:39.960Z,23.30
2019-05-21T10:31:39.963Z,23.80
2019-05-21T10:32:39.946Z,23.20
2019-05-21T10:33:39.941Z,24.40
2019-05-21T10:34:39.934Z,24.20
2019-05-21T10:35:39.928Z,24.80
2019-05-21T10:36:39.932Z,24.90
2019-05-21T10:37:54.056Z,25.00
2019-05-21T10:38:39.915Z,24.90
2019-05-21T10:39:39.910Z,24.40
2019-05-21T10:40:39.919Z,22.60
2019-05-21T10:41:39.897Z,23.00
2019-05-21T10:42:39.892Z,24.10
2019-05-21T10:43:39.886Z,24.00
2019-05-21T10:44:39.887Z,23.70
2019-05-21T10:45:39.881Z,23.70
2019-05-21T10:46:39.879Z,25.10
2019-05-21T10:47:39.864Z,24.80
2019-05-21T10:48:39.866Z,25.00
2019-05-21T10:49:39.862Z,25.40
2019-05-21T10:50:39.857Z,25.80
2019-05-21T10:51:39.850Z,27.00
2019-05-21T10:52:39.843Z,27.50
2019-05-21T10:53:39.837Z,28.30
2019-05-21T10:54:39.837Z,29.20
2019-05-21T10:55:39.834Z,29.80
2019-05-21T10:56:48.144Z,29.60
2019-05-21T10:57:39.821Z,30.80
2019-05-21T10:58:39.812Z,30.60
2019-05-21T10:59:39.805Z,30.90
2019-05-21T11:00:39.805Z,32.10
2019-05-21T11:01:39.799Z,31.10
2019-05-21T11:02:39.795Z,29.00
2019-05-21T11:03:39.788Z,29.40
2019-05-21T11:04:39.779Z,28.30
2019-05-21T11:05:39.774Z,27.50
2019-05-21T11:06:39.773Z,27.10
2019-05-21T11:07:39.772Z,27.30
2019-05-21T11:08:39.768Z,25.70
2019-05-21T11:09:39.764Z,25.50
2019-05-21T11:10:39.756Z,25.20
2019-05-21T11:11:39.752Z,26.30
2019-05-21T11:12:39.750Z,26.00
2019-05-21T11:13:39.744Z,27.20
2019-05-21T11:14:39.743Z,26.70
2019-05-21T11:15:39.733Z,26.10
2019-05-21T11:16:39.722Z,25.90
2019-05-21T11:17:49.931Z,24.60
2019-05-21T11:18:39.715Z,24.80
2019-05-21T11:19:39.707Z,28.60
2019-05-21T11:20:39.708Z,26.90
2019-05-21T11:21:39.702Z,25.60
2019-05-21T11:22:39.713Z,25.90
2019-05-21T11:23:39.710Z,26.00
2019-05-21T11:24:39.690Z,26.60
2019-05-21T11:25:39.687Z,25.40
2019-05-21T11:26:39.683Z,26.00
2019-05-21T11:27:39.679Z,27.80
2019-05-21T11:28:39.670Z,27.00
2019-05-21T11:29:39.664Z,27.40
2019-05-21T11:30:39.657Z,28.20
2019-05-21T11:31:55.367Z,27.60
2019-05-21T11:32:39.656Z,29.90
2019-05-21T11:33:39.651Z,30.20
2019-05-21T11:34:39.642Z,29.30
2019-05-21T11:35:39.637Z,28.60
2019-05-21T11:36:39.643Z,27.40
2019-05-21T11:37:39.628Z,28.10
2019-05-21T11:38:40.498Z,27.50
2019-05-21T11:39:39.616Z,28.10
2019-05-21T11:40:39.617Z,27.60
2019-05-21T11:41:39.610Z,26.00
2019-05-21T11:42:39.613Z,26.80
2019-05-21T11:43:39.597Z,25.30
2019-05-21T11:44:39.598Z,24.30
2019-05-21T11:45:39.591Z,25.90
2019-05-21T11:46:39.586Z,24.70
2019-05-21T11:47:39.578Z,25.10
2019-05-21T11:48:39.582Z,25.50
2019-05-21T11:49:39.568Z,25.10
2019-05-21T11:50:39.565Z,24.30
2019-05-21T11:51:39.561Z,26.10
2019-05-21T11:52:39.568Z,23.80
2019-05-21T11:53:39.556Z,24.90
2019-05-21T11:54:39.547Z,24.80
2019-05-21T11:55:39.549Z,24.20
2019-05-21T11:56:39.535Z,24.00
2019-05-21T11:57:39.528Z,24.30
2019-05-21T11:58:40.138Z,24.50
2019-05-21T11:59:39.526Z,24.80
2019-05-21T12:00:39.534Z,24.90
2019-05-21T12:01:39.527Z,25.00
2019-05-21T12:02:39.511Z,26.60
2019-05-21T12:03:39.506Z,24.90
2019-05-21T12:04:39.506Z,25.10
2019-05-21T12:05:39.498Z,24.50
2019-05-21T12:06:39.496Z,25.20
2019-05-21T12:07:39.490Z,26.60
2019-05-21T12:08:55.168Z,25.90
2019-05-21T12:09:39.478Z,25.90
2019-05-21T12:10:39.470Z,25.80
2019-05-21T12:11:39.466Z,28.20
2019-05-21T12:12:39.465Z,26.20
2019-05-21T12:13:39.463Z,26.60
2019-05-21T12:14:39.457Z,24.30
2019-05-21T12:15:39.447Z,26.20
2019-05-21T12:16:39.456Z,25.30
2019-05-21T12:17:39.444Z,24.90
2019-05-21T12:18:39.445Z,23.80
2019-05-21T12:19:39.438Z,25.70
2019-05-21T12:20:39.426Z,25.80
2019-05-21T12:21:39.424Z,25.10
2019-05-21T12:22:39.420Z,26.30
2019-05-21T12:23:39.422Z,25.50
2019-05-21T12:24:39.416Z,26.60
2019-05-21T12:25:39.415Z,26.10
2019-05-21T12:26:39.438Z,26.30
2019-05-21T12:27:39.516Z,31.00
2019-05-21T12:28:39.390Z,27.30
2019-05-21T12:29:39.385Z,26.70
2019-05-21T12:30:39.385Z,26.20
2019-05-21T12:31:39.379Z,25.40
2019-05-21T12:32:39.378Z,25.50
2019-05-21T12:33:39.365Z,27.30
2019-05-21T12:34:39.574Z,25.80
2019-05-21T12:35:39.365Z,26.40
2019-05-21T12:36:39.369Z,25.80
2019-05-21T12:37:39.356Z,25.60
2019-05-21T12:38:39.350Z,26.40
2019-05-21T12:39:39.347Z,25.20
2019-05-21T12:40:39.339Z,26.10
2019-05-21T12:41:39.369Z,26.80
2019-05-21T12:42:39.327Z,26.80
2019-05-21T12:43:39.331Z,27.30
2019-05-21T12:44:39.319Z,26.20
2019-05-21T12:45:39.319Z,26.30
2019-05-21T12:46:39.306Z,26.60
2019-05-21T12:47:39.309Z,26.50
2019-05-21T12:48:39.302Z,26.00
2019-05-21T12:49:39.300Z,26.90
2019-05-21T12:50:39.295Z,28.30
2019-05-21T12:51:39.303Z,25.80
2019-05-21T12:52:39.310Z,26.70